sensor_id;sensor_type;location;lat;lon;timestamp;pressure;altitude;pressure_sealevel;temperature;humidity
12471;BME280;36499;46.484;13.832;2023-07-24T00:00:45;93197.19;;;17.58;89.10
12471;BME280;36499;46.484;13.832;2023-07-24T00:03:12;93197.94;;;17.54;90.16
12471;BME280;36499;46.484;13.832;2023-07-24T00:05:39;93197.28;;;17.42;91.49
12471;BME280;36499;46.484;13.832;2023-07-24T00:08:06;93190.94;;;17.38;91.99
12471;BME280;36499;46.484;13.832;2023-07-24T00:10:33;93192.44;;;17.28;92.08
12471;BME280;36499;46.484;13.832;2023-07-24T00:13:02;93197.41;;;16.98;94.77
12471;BME280;36499;46.484;13.832;2023-07-24T00:15:29;93201.34;;;16.96;97.11
12471;BME280;36499;46.484;13.832;2023-07-24T00:17:56;93201.19;;;17.07;96.54
12471;BME280;36499;46.484;13.832;2023-07-24T00:20:23;93186.28;;;17.18;95.77
12471;BME280;36499;46.484;13.832;2023-07-24T00:22:51;93190.81;;;17.22;94.25
12471;BME280;36499;46.484;13.832;2023-07-24T00:25:18;93192.44;;;17.28;93.96
12471;BME280;36499;46.484;13.832;2023-07-24T00:27:45;93187.22;;;17.34;93.71
12471;BME280;36499;46.484;13.832;2023-07-24T00:30:14;93181.66;;;17.35;93.46
12471;BME280;36499;46.484;13.832;2023-07-24T00:32:41;93179.31;;;17.39;92.65
12471;BME280;36499;46.484;13.832;2023-07-24T00:35:08;93179.59;;;17.37;92.78
12471;BME280;36499;46.484;13.832;2023-07-24T00:37:36;93176.41;;;17.35;93.21
12471;BME280;36499;46.484;13.832;2023-07-24T00:40:05;93178.50;;;17.33;94.13
12471;BME280;36499;46.484;13.832;2023-07-24T00:42:32;93175.56;;;17.30;94.77
12471;BME280;36499;46.484;13.832;2023-07-24T00:44:59;93178.72;;;17.26;95.34
12471;BME280;36499;46.484;13.832;2023-07-24T00:47:28;93169.97;;;17.21;96.28
12471;BME280;36499;46.484;13.832;2023-07-24T00:49:56;93170.72;;;17.16;95.46
12471;BME280;36499;46.484;13.832;2023-07-24T00:52:23;93176.47;;;17.13;95.49
12471;BME280;36499;46.484;13.832;2023-07-24T00:54:51;93175.00;;;17.27;94.15
12471;BME280;36499;46.484;13.832;2023-07-24T00:57:18;93167.63;;;17.24;94.16
12471;BME280;36499;46.484;13.832;2023-07-24T00:59:46;93172.44;;;17.33;93.32
12471;BME280;36499;46.484;13.832;2023-07-24T01:02:13;93169.28;;;17.31;93.73
12471;BME280;36499;46.484;13.832;2023-07-24T01:04:41;93172.44;;;17.33;93.65
12471;BME280;36499;46.484;13.832;2023-07-24T01:07:08;93176.91;;;17.32;93.16
12471;BME280;36499;46.484;13.832;2023-07-24T01:09:36;93175.06;;;17.33;92.83
12471;BME280;36499;46.484;13.832;2023-07-24T01:12:13;93167.09;;;17.27;92.85
12471;BME280;36499;46.484;13.832;2023-07-24T01:14:46;93170.25;;;17.24;93.31
12471;BME280;36499;46.484;13.832;2023-07-24T01:17:19;93172.09;;;17.24;92.48
12471;BME280;36499;46.484;13.832;2023-07-24T01:19:55;93166.81;;;17.24;92.21
12471;BME280;36499;46.484;13.832;2023-07-24T01:22:34;93174.72;;;17.24;92.35
12471;BME280;36499;46.484;13.832;2023-07-24T01:25:11;93177.13;;;17.25;92.53
12471;BME280;36499;46.484;13.832;2023-07-24T01:27:44;93171.06;;;17.25;92.82
12471;BME280;36499;46.484;13.832;2023-07-24T01:30:15;93166.00;;;17.18;92.93
12471;BME280;36499;46.484;13.832;2023-07-24T01:32:42;93165.41;;;17.11;90.71
12471;BME280;36499;46.484;13.832;2023-07-24T01:35:09;93176.94;;;17.05;89.99
12471;BME280;36499;46.484;13.832;2023-07-24T01:37:38;93173.72;;;16.98;92.04
12471;BME280;36499;46.484;13.832;2023-07-24T01:40:07;93166.31;;;16.95;92.53
12471;BME280;36499;46.484;13.832;2023-07-24T01:42:36;93168.72;;;17.02;92.66
12471;BME280;36499;46.484;13.832;2023-07-24T01:45:06;93149.50;;;17.01;91.37
12471;BME280;36499;46.484;13.832;2023-07-24T01:47:34;93147.91;;;17.27;89.66
12471;BME280;36499;46.484;13.832;2023-07-24T01:50:01;93137.66;;;17.31;89.18
12471;BME280;36499;46.484;13.832;2023-07-24T01:52:28;93135.53;;;17.33;89.36
12471;BME280;36499;46.484;13.832;2023-07-24T01:54:55;93129.75;;;17.31;88.38
12471;BME280;36499;46.484;13.832;2023-07-24T01:57:22;93131.31;;;17.32;88.25
12471;BME280;36499;46.484;13.832;2023-07-24T01:59:49;93135.78;;;17.31;89.26
12471;BME280;36499;46.484;13.832;2023-07-24T02:02:17;93130.28;;;17.33;88.74
12471;BME280;36499;46.484;13.832;2023-07-24T02:04:46;93121.03;;;17.30;89.21
12471;BME280;36499;46.484;13.832;2023-07-24T02:07:13;93121.03;;;17.30;89.20
12471;BME280;36499;46.484;13.832;2023-07-24T02:09:40;93121.84;;;17.31;88.87
12471;BME280;36499;46.484;13.832;2023-07-24T02:12:08;93123.13;;;17.28;88.28
12471;BME280;36499;46.484;13.832;2023-07-24T02:14:35;93126.13;;;17.10;87.34
12471;BME280;36499;46.484;13.832;2023-07-24T02:17:02;93122.47;;;17.11;88.39
12471;BME280;36499;46.484;13.832;2023-07-24T02:19:30;93122.19;;;17.12;88.46
12471;BME280;36499;46.484;13.832;2023-07-24T02:21:57;93125.38;;;17.14;88.82
12471;BME280;36499;46.484;13.832;2023-07-24T02:24:24;93124.06;;;17.12;89.27
12471;BME280;36499;46.484;13.832;2023-07-24T02:26:51;93112.38;;;17.03;90.57
12471;BME280;36499;46.484;13.832;2023-07-24T02:29:18;93120.56;;;17.06;90.34
12471;BME280;36499;46.484;13.832;2023-07-24T02:31:45;93120.28;;;17.03;89.81
12471;BME280;36499;46.484;13.832;2023-07-24T02:34:12;93120.50;;;16.96;91.04
12471;BME280;36499;46.484;13.832;2023-07-24T02:36:41;93122.03;;;16.92;91.53
12471;BME280;36499;46.484;13.832;2023-07-24T02:39:08;93111.53;;;16.97;90.99
12471;BME280;36499;46.484;13.832;2023-07-24T02:41:35;93118.41;;;16.98;90.44
12471;BME280;36499;46.484;13.832;2023-07-24T02:44:03;93117.06;;;16.96;89.38
12471;BME280;36499;46.484;13.832;2023-07-24T02:46:30;93112.84;;;16.95;87.97
12471;BME280;36499;46.484;13.832;2023-07-24T02:48:57;93112.59;;;16.96;88.56
12471;BME280;36499;46.484;13.832;2023-07-24T02:51:24;93116.84;;;17.02;89.10
12471;BME280;36499;46.484;13.832;2023-07-24T02:53:54;93109.00;;;17.07;89.35
12471;BME280;36499;46.484;13.832;2023-07-24T02:56:22;93116.84;;;17.02;89.42
12471;BME280;36499;46.484;13.832;2023-07-24T02:58:49;93122.84;;;16.66;90.83
12471;BME280;36499;46.484;13.832;2023-07-24T03:01:16;93120.91;;;16.56;91.95
12471;BME280;36499;46.484;13.832;2023-07-24T03:03:43;93121.59;;;16.52;92.24
12471;BME280;36499;46.484;13.832;2023-07-24T03:06:10;93123.34;;;16.41;91.36
12471;BME280;36499;46.484;13.832;2023-07-24T03:08:37;93130.09;;;16.32;91.87
12471;BME280;36499;46.484;13.832;2023-07-24T03:11:07;93123.47;;;16.29;93.24
12471;BME280;36499;46.484;13.832;2023-07-24T03:13:34;93127.31;;;16.22;93.68
12471;BME280;36499;46.484;13.832;2023-07-24T03:16:01;93114.97;;;16.22;93.99
12471;BME280;36499;46.484;13.832;2023-07-24T03:18:28;93120.47;;;16.21;94.18
12471;BME280;36499;46.484;13.832;2023-07-24T03:20:57;93109.91;;;16.16;94.03
12471;BME280;36499;46.484;13.832;2023-07-24T03:23:25;93111.13;;;16.08;95.73
12471;BME280;36499;46.484;13.832;2023-07-24T03:25:52;93117.84;;;15.99;97.88
12471;BME280;36499;46.484;13.832;2023-07-24T03:28:20;93109.00;;;16.05;97.48
12471;BME280;36499;46.484;13.832;2023-07-24T03:30:47;93111.38;;;16.07;97.54
12471;BME280;36499;46.484;13.832;2023-07-24T03:33:14;93113.56;;;16.15;97.38
12471;BME280;36499;46.484;13.832;2023-07-24T03:35:41;93108.31;;;16.15;96.58
12471;BME280;36499;46.484;13.832;2023-07-24T03:38:08;93112.97;;;16.08;95.59
12471;BME280;36499;46.484;13.832;2023-07-24T03:40:35;93108.66;;;16.02;96.57
12471;BME280;36499;46.484;13.832;2023-07-24T03:43:02;93114.91;;;15.96;97.21
12471;BME280;36499;46.484;13.832;2023-07-24T03:45:31;93105.81;;;16.03;97.63
12471;BME280;36499;46.484;13.832;2023-07-24T03:47:58;93109.31;;;16.09;98.18
12471;BME280;36499;46.484;13.832;2023-07-24T03:50:25;93100.91;;;16.12;96.48
12471;BME280;36499;46.484;13.832;2023-07-24T03:52:52;93101.44;;;16.14;96.01
12471;BME280;36499;46.484;13.832;2023-07-24T03:55:19;93092.22;;;16.11;94.98
12471;BME280;36499;46.484;13.832;2023-07-24T03:57:46;93092.03;;;16.18;94.54
12471;BME280;36499;46.484;13.832;2023-07-24T04:00:14;93093.63;;;16.19;94.39
12471;BME280;36499;46.484;13.832;2023-07-24T04:02:42;93087.47;;;16.08;94.09
12471;BME280;36499;46.484;13.832;2023-07-24T04:05:09;93090.31;;;16.07;94.48
12471;BME280;36499;46.484;13.832;2023-07-24T04:07:36;93090.41;;;16.12;94.98
12471;BME280;36499;46.484;13.832;2023-07-24T04:10:05;93092.28;;;16.16;94.86
12471;BME280;36499;46.484;13.832;2023-07-24T04:12:32;93094.34;;;16.14;94.43
12471;BME280;36499;46.484;13.832;2023-07-24T04:14:59;93099.88;;;16.13;94.20
12471;BME280;36499;46.484;13.832;2023-07-24T04:17:26;93104.88;;;16.14;93.87
12471;BME280;36499;46.484;13.832;2023-07-24T04:19:54;93099.38;;;16.16;93.30
12471;BME280;36499;46.484;13.832;2023-07-24T04:22:22;93105.91;;;16.13;93.50
12471;BME280;36499;46.484;13.832;2023-07-24T04:24:49;93109.09;;;16.15;93.92
12471;BME280;36499;46.484;13.832;2023-07-24T04:27:16;93103.13;;;16.20;93.88
12471;BME280;36499;46.484;13.832;2023-07-24T04:29:43;93103.91;;;16.20;94.35
12471;BME280;36499;46.484;13.832;2023-07-24T04:32:10;93118.16;;;16.24;94.61
12471;BME280;36499;46.484;13.832;2023-07-24T04:34:37;93111.34;;;16.28;94.53
12471;BME280;36499;46.484;13.832;2023-07-24T04:37:05;93101.16;;;16.32;93.89
12471;BME280;36499;46.484;13.832;2023-07-24T04:39:32;93101.69;;;16.34;93.94
12471;BME280;36499;46.484;13.832;2023-07-24T04:42:00;93099.59;;;16.36;94.42
12471;BME280;36499;46.484;13.832;2023-07-24T04:44:27;93111.72;;;16.37;94.30
12471;BME280;36499;46.484;13.832;2023-07-24T04:46:54;93115.22;;;16.43;94.31
12471;BME280;36499;46.484;13.832;2023-07-24T04:49:21;93107.59;;;16.46;94.66
12471;BME280;36499;46.484;13.832;2023-07-24T04:51:49;93111.84;;;16.47;94.63
12471;BME280;36499;46.484;13.832;2023-07-24T04:54:17;93116.31;;;16.47;93.49
12471;BME280;36499;46.484;13.832;2023-07-24T04:56:44;93115.25;;;16.48;93.70
12471;BME280;36499;46.484;13.832;2023-07-24T04:59:11;93099.28;;;16.54;93.76
12471;BME280;36499;46.484;13.832;2023-07-24T05:01:38;93104.59;;;16.59;93.91
12471;BME280;36499;46.484;13.832;2023-07-24T05:04:05;93099.16;;;16.66;93.53
12471;BME280;36499;46.484;13.832;2023-07-24T05:06:32;93088.91;;;16.69;93.52
12471;BME280;36499;46.484;13.832;2023-07-24T05:09:01;93096.59;;;16.76;94.12
12471;BME280;36499;46.484;13.832;2023-07-24T05:11:29;93081.41;;;16.83;93.94
12471;BME280;36499;46.484;13.832;2023-07-24T05:13:56;93086.22;;;16.91;94.40
12471;BME280;36499;46.484;13.832;2023-07-24T05:16:23;93093.66;;;16.99;95.32
12471;BME280;36499;46.484;13.832;2023-07-24T05:18:50;93105.34;;;17.13;95.44
12471;BME280;36499;46.484;13.832;2023-07-24T05:21:17;93093.59;;;17.26;95.41
12471;BME280;36499;46.484;13.832;2023-07-24T05:23:44;93095.50;;;17.36;96.47
12471;BME280;36499;46.484;13.832;2023-07-24T05:26:11;93097.16;;;17.47;96.14
12471;BME280;36499;46.484;13.832;2023-07-24T05:28:39;93097.19;;;17.52;95.42
12471;BME280;36499;46.484;13.832;2023-07-24T05:31:06;93082.25;;;17.57;95.47
12471;BME280;36499;46.484;13.832;2023-07-24T05:33:34;93080.38;;;17.58;95.14
12471;BME280;36499;46.484;13.832;2023-07-24T05:36:03;93086.81;;;17.72;95.47
12471;BME280;36499;46.484;13.832;2023-07-24T05:38:30;93095.31;;;17.84;95.94
12471;BME280;36499;46.484;13.832;2023-07-24T05:40:58;93090.34;;;17.98;95.72
12471;BME280;36499;46.484;13.832;2023-07-24T05:43:26;93095.16;;;18.16;95.59
12471;BME280;36499;46.484;13.832;2023-07-24T05:45:56;93100.78;;;18.35;96.15
12471;BME280;36499;46.484;13.832;2023-07-24T05:48:24;93097.63;;;18.43;95.52
12471;BME280;36499;46.484;13.832;2023-07-24T05:50:51;93097.97;;;18.56;95.14
12471;BME280;36499;46.484;13.832;2023-07-24T05:53:18;93100.63;;;18.66;94.68
12471;BME280;36499;46.484;13.832;2023-07-24T05:55:45;93089.56;;;18.75;94.80
12471;BME280;36499;46.484;13.832;2023-07-24T05:58:12;93092.47;;;18.93;95.25
12471;BME280;36499;46.484;13.832;2023-07-24T06:00:39;93089.88;;;19.13;95.10
12471;BME280;36499;46.484;13.832;2023-07-24T06:03:08;93089.06;;;19.28;93.13
12471;BME280;36499;46.484;13.832;2023-07-24T06:05:35;93081.13;;;19.48;92.03
12471;BME280;36499;46.484;13.832;2023-07-24T06:08:02;93075.78;;;19.63;89.17
12471;BME280;36499;46.484;13.832;2023-07-24T06:10:29;93085.28;;;19.80;88.19
12471;BME280;36499;46.484;13.832;2023-07-24T06:12:56;93083.16;;;19.92;87.92
12471;BME280;36499;46.484;13.832;2023-07-24T06:15:23;93066.44;;;20.01;86.19
12471;BME280;36499;46.484;13.832;2023-07-24T06:17:50;93066.91;;;20.13;85.64
12471;BME280;36499;46.484;13.832;2023-07-24T06:20:19;93058.41;;;20.27;85.38
12471;BME280;36499;46.484;13.832;2023-07-24T06:22:46;93053.31;;;20.40;84.95
12471;BME280;36499;46.484;13.832;2023-07-24T06:25:13;93050.34;;;20.52;84.76
12471;BME280;36499;46.484;13.832;2023-07-24T06:27:40;93045.75;;;20.63;85.08
12471;BME280;36499;46.484;13.832;2023-07-24T06:30:07;93040.97;;;20.70;84.22
12471;BME280;36499;46.484;13.832;2023-07-24T06:32:34;93036.19;;;20.72;82.98
12471;BME280;36499;46.484;13.832;2023-07-24T06:35:02;93037.53;;;20.69;81.96
12471;BME280;36499;46.484;13.832;2023-07-24T06:37:30;93035.16;;;20.68;81.42
12471;BME280;36499;46.484;13.832;2023-07-24T06:39:57;93020.53;;;20.75;82.26
12471;BME280;36499;46.484;13.832;2023-07-24T06:42:24;93013.00;;;20.87;82.43
12471;BME280;36499;46.484;13.832;2023-07-24T06:44:51;93010.75;;;21.04;82.70
12471;BME280;36499;46.484;13.832;2023-07-24T06:47:18;93016.22;;;21.18;79.56
12471;BME280;36499;46.484;13.832;2023-07-24T06:49:45;93011.03;;;21.37;81.75
12471;BME280;36499;46.484;13.832;2023-07-24T06:52:12;93016.59;;;21.64;81.19
12471;BME280;36499;46.484;13.832;2023-07-24T06:54:41;93015.88;;;21.77;79.93
12471;BME280;36499;46.484;13.832;2023-07-24T06:57:08;93027.94;;;21.93;79.72
12471;BME280;36499;46.484;13.832;2023-07-24T06:59:35;93031.50;;;22.08;79.46
12471;BME280;36499;46.484;13.832;2023-07-24T07:02:03;93037.34;;;22.10;76.71
12471;BME280;36499;46.484;13.832;2023-07-24T07:04:30;93033.69;;;22.24;76.86
12471;BME280;36499;46.484;13.832;2023-07-24T07:06:57;93036.72;;;22.36;73.78
12471;BME280;36499;46.484;13.832;2023-07-24T07:09:24;93033.22;;;22.60;74.04
12471;BME280;36499;46.484;13.832;2023-07-24T07:11:52;93026.19;;;22.87;76.20
12471;BME280;36499;46.484;13.832;2023-07-24T07:14:19;93020.84;;;23.06;72.43
12471;BME280;36499;46.484;13.832;2023-07-24T07:16:46;93016.50;;;23.10;67.93
12471;BME280;36499;46.484;13.832;2023-07-24T07:19:14;93018.31;;;23.15;68.73
12471;BME280;36499;46.484;13.832;2023-07-24T07:21:41;93014.47;;;23.21;68.79
12471;BME280;36499;46.484;13.832;2023-07-24T07:24:08;93007.41;;;23.30;68.93
12471;BME280;36499;46.484;13.832;2023-07-24T07:26:35;93016.75;;;23.46;71.21
12471;BME280;36499;46.484;13.832;2023-07-24T07:29:03;93004.56;;;23.59;70.31
12471;BME280;36499;46.484;13.832;2023-07-24T07:31:30;93001.00;;;23.77;68.21
12471;BME280;36499;46.484;13.832;2023-07-24T07:33:57;93004.53;;;23.86;68.37
12471;BME280;36499;46.484;13.832;2023-07-24T07:36:24;93000.31;;;23.99;67.91
12471;BME280;36499;46.484;13.832;2023-07-24T07:38:51;92997.38;;;24.14;67.13
12471;BME280;36499;46.484;13.832;2023-07-24T07:41:18;93001.00;;;24.31;66.89
12471;BME280;36499;46.484;13.832;2023-07-24T07:43:45;92996.72;;;24.58;64.47
12471;BME280;36499;46.484;13.832;2023-07-24T07:46:14;92968.88;;;24.86;64.08
12471;BME280;36499;46.484;13.832;2023-07-24T07:48:41;92962.25;;;25.06;63.25
12471;BME280;36499;46.484;13.832;2023-07-24T07:51:08;92961.09;;;25.20;60.50
12471;BME280;36499;46.484;13.832;2023-07-24T07:53:35;92949.44;;;25.47;62.16
12471;BME280;36499;46.484;13.832;2023-07-24T07:56:02;92942.78;;;25.58;59.21
12471;BME280;36499;46.484;13.832;2023-07-24T07:58:29;92944.06;;;25.69;60.88
12471;BME280;36499;46.484;13.832;2023-07-24T08:00:56;92940.66;;;25.77;57.94
12471;BME280;36499;46.484;13.832;2023-07-24T08:03:24;92935.19;;;25.91;59.55
12471;BME280;36499;46.484;13.832;2023-07-24T08:05:51;92930.81;;;26.04;59.13
12471;BME280;36499;46.484;13.832;2023-07-24T08:08:18;92914.81;;;26.12;59.20
12471;BME280;36499;46.484;13.832;2023-07-24T08:10:45;92921.91;;;26.25;60.00
12471;BME280;36499;46.484;13.832;2023-07-24T08:13:12;92932.47;;;26.31;59.12
12471;BME280;36499;46.484;13.832;2023-07-24T08:15:39;92918.94;;;26.44;58.64
12471;BME280;36499;46.484;13.832;2023-07-24T08:18:07;92901.81;;;26.45;59.86
12471;BME280;36499;46.484;13.832;2023-07-24T08:20:37;92898.03;;;26.46;57.93
12471;BME280;36499;46.484;13.832;2023-07-24T08:23:04;92901.03;;;26.36;58.20
12471;BME280;36499;46.484;13.832;2023-07-24T08:25:31;92896.59;;;26.49;59.44
12471;BME280;36499;46.484;13.832;2023-07-24T08:27:59;92875.84;;;26.54;57.72
12471;BME280;36499;46.484;13.832;2023-07-24T08:30:26;92874.41;;;26.74;58.03
12471;BME280;36499;46.484;13.832;2023-07-24T08:32:53;92879.31;;;26.55;57.33
12471;BME280;36499;46.484;13.832;2023-07-24T08:35:20;92873.81;;;26.51;55.92
12471;BME280;36499;46.484;13.832;2023-07-24T08:37:48;92855.56;;;26.53;57.29
12471;BME280;36499;46.484;13.832;2023-07-24T08:40:16;92843.56;;;26.77;58.14
12471;BME280;36499;46.484;13.832;2023-07-24T08:42:43;92836.34;;;26.86;56.45
12471;BME280;36499;46.484;13.832;2023-07-24T08:45:12;92853.78;;;26.83;56.14
12471;BME280;36499;46.484;13.832;2023-07-24T08:47:43;92848.28;;;26.71;56.07
12471;BME280;36499;46.484;13.832;2023-07-24T08:50:11;92856.97;;;26.85;56.74
12471;BME280;36499;46.484;13.832;2023-07-24T08:52:38;92851.69;;;27.06;57.52
12471;BME280;36499;46.484;13.832;2023-07-24T08:55:08;92864.25;;;27.23;56.97
12471;BME280;36499;46.484;13.832;2023-07-24T08:57:35;92875.88;;;27.35;55.52
12471;BME280;36499;46.484;13.832;2023-07-24T09:00:04;92886.22;;;27.54;57.64
12471;BME280;36499;46.484;13.832;2023-07-24T09:02:32;92884.41;;;27.66;55.32
12471;BME280;36499;46.484;13.832;2023-07-24T09:05:00;92891.91;;;27.82;55.34
12471;BME280;36499;46.484;13.832;2023-07-24T09:07:27;92910.31;;;27.92;55.02
12471;BME280;36499;46.484;13.832;2023-07-24T09:09:54;92900.13;;;28.06;54.21
12471;BME280;36499;46.484;13.832;2023-07-24T09:12:23;92890.50;;;28.34;55.20
12471;BME280;36499;46.484;13.832;2023-07-24T09:15:02;92874.66;;;28.41;53.00
12471;BME280;36499;46.484;13.832;2023-07-24T09:17:29;92869.94;;;28.38;53.05
12471;BME280;36499;46.484;13.832;2023-07-24T09:19:57;92873.63;;;28.34;53.40
12471;BME280;36499;46.484;13.832;2023-07-24T09:22:24;92855.81;;;28.29;53.46
12471;BME280;36499;46.484;13.832;2023-07-24T09:24:55;92850.13;;;28.51;56.76
12471;BME280;36499;46.484;13.832;2023-07-24T09:27:28;92834.50;;;28.66;54.11
12471;BME280;36499;46.484;13.832;2023-07-24T09:29:56;92825.19;;;28.72;54.67
12471;BME280;36499;46.484;13.832;2023-07-24T09:32:25;92828.91;;;28.79;52.51
12471;BME280;36499;46.484;13.832;2023-07-24T09:34:53;92810.00;;;28.76;52.10
12471;BME280;36499;46.484;13.832;2023-07-24T09:37:25;92797.25;;;28.85;54.73
12471;BME280;36499;46.484;13.832;2023-07-24T09:39:53;92796.72;;;28.91;53.54
12471;BME280;36499;46.484;13.832;2023-07-24T09:42:30;92791.59;;;28.98;52.69
12471;BME280;36499;46.484;13.832;2023-07-24T09:45:00;92806.91;;;28.98;51.46
12471;BME280;36499;46.484;13.832;2023-07-24T09:47:28;92816.88;;;28.97;52.55
12471;BME280;36499;46.484;13.832;2023-07-24T09:49:55;92815.63;;;28.95;53.46
12471;BME280;36499;46.484;13.832;2023-07-24T09:52:24;92809.75;;;28.81;53.54
12471;BME280;36499;46.484;13.832;2023-07-24T09:54:59;92803.97;;;28.79;53.79
12471;BME280;36499;46.484;13.832;2023-07-24T09:57:33;92811.69;;;28.92;54.29
12471;BME280;36499;46.484;13.832;2023-07-24T10:00:01;92786.28;;;28.78;51.84
12471;BME280;36499;46.484;13.832;2023-07-24T10:02:28;92771.59;;;28.42;53.28
12471;BME280;36499;46.484;13.832;2023-07-24T10:04:56;92788.84;;;28.41;54.43
12471;BME280;36499;46.484;13.832;2023-07-24T10:07:24;92824.41;;;28.50;57.05
12471;BME280;36499;46.484;13.832;2023-07-24T10:09:53;92838.19;;;28.82;54.39
12471;BME280;36499;46.484;13.832;2023-07-24T10:12:22;92836.56;;;29.01;54.18
12471;BME280;36499;46.484;13.832;2023-07-24T10:14:55;92838.50;;;29.13;54.62
12471;BME280;36499;46.484;13.832;2023-07-24T10:17:35;92852.28;;;28.79;52.17
12471;BME280;36499;46.484;13.832;2023-07-24T10:20:05;92849.44;;;28.54;52.89
12471;BME280;36499;46.484;13.832;2023-07-24T10:22:32;92858.44;;;28.17;54.48
12471;BME280;36499;46.484;13.832;2023-07-24T10:24:59;92851.59;;;27.99;55.11
12471;BME280;36499;46.484;13.832;2023-07-24T10:27:27;92853.94;;;27.80;55.77
12471;BME280;36499;46.484;13.832;2023-07-24T10:30:04;92875.19;;;27.00;57.02
12471;BME280;36499;46.484;13.832;2023-07-24T10:32:32;92854.25;;;26.94;57.54
12471;BME280;36499;46.484;13.832;2023-07-24T10:35:06;92843.25;;;26.87;53.25
12471;BME280;36499;46.484;13.832;2023-07-24T10:37:36;92801.41;;;26.65;56.51
12471;BME280;36499;46.484;13.832;2023-07-24T10:40:05;92839.81;;;26.17;49.49
12471;BME280;36499;46.484;13.832;2023-07-24T10:42:33;92847.84;;;26.35;47.48
12471;BME280;36499;46.484;13.832;2023-07-24T10:45:09;92847.19;;;26.03;46.53
12471;BME280;36499;46.484;13.832;2023-07-24T10:47:36;92870.75;;;25.75;47.24
12471;BME280;36499;46.484;13.832;2023-07-24T10:50:04;92880.47;;;25.71;46.36
12471;BME280;36499;46.484;13.832;2023-07-24T10:52:33;92893.94;;;25.66;47.88
12471;BME280;36499;46.484;13.832;2023-07-24T10:55:01;92904.16;;;25.64;47.49
12471;BME280;36499;46.484;13.832;2023-07-24T10:57:30;92884.53;;;25.60;46.94
12471;BME280;36499;46.484;13.832;2023-07-24T10:59:57;92817.75;;;25.52;46.27
12471;BME280;36499;46.484;13.832;2023-07-24T11:02:25;92734.78;;;25.48;46.68
12471;BME280;36499;46.484;13.832;2023-07-24T11:04:53;92720.00;;;25.42;46.25
12471;BME280;36499;46.484;13.832;2023-07-24T11:07:21;92744.25;;;25.63;49.02
12471;BME280;36499;46.484;13.832;2023-07-24T11:09:48;92775.47;;;25.54;56.33
12471;BME280;36499;46.484;13.832;2023-07-24T11:12:17;92806.44;;;25.55;55.57
12471;BME280;36499;46.484;13.832;2023-07-24T11:14:51;92869.22;;;25.13;56.67
12471;BME280;36499;46.484;13.832;2023-07-24T11:17:20;92884.72;;;25.02;55.20
12471;BME280;36499;46.484;13.832;2023-07-24T11:19:48;92920.34;;;24.62;52.09
12471;BME280;36499;46.484;13.832;2023-07-24T11:22:15;92934.63;;;24.66;51.93
12471;BME280;36499;46.484;13.832;2023-07-24T11:24:46;92941.38;;;24.63;50.58
12471;BME280;36499;46.484;13.832;2023-07-24T11:27:15;92945.25;;;24.21;53.22
12471;BME280;36499;46.484;13.832;2023-07-24T11:29:47;92916.66;;;24.49;50.71
12471;BME280;36499;46.484;13.832;2023-07-24T11:32:18;92896.84;;;24.42;52.90
12471;BME280;36499;46.484;13.832;2023-07-24T11:34:48;92894.50;;;24.13;53.32
12471;BME280;36499;46.484;13.832;2023-07-24T11:37:16;92856.16;;;24.14;50.59
12471;BME280;36499;46.484;13.832;2023-07-24T11:39:55;92856.31;;;24.31;52.11
12471;BME280;36499;46.484;13.832;2023-07-24T11:42:26;92811.91;;;24.26;50.29
12471;BME280;36499;46.484;13.832;2023-07-24T11:44:54;92789.44;;;24.41;52.06
12471;BME280;36499;46.484;13.832;2023-07-24T11:47:21;92772.50;;;24.68;50.51
12471;BME280;36499;46.484;13.832;2023-07-24T11:50:00;92739.13;;;24.79;47.77
12471;BME280;36499;46.484;13.832;2023-07-24T11:52:38;92757.97;;;25.22;49.22
12471;BME280;36499;46.484;13.832;2023-07-24T11:55:07;92770.25;;;25.40;46.97
12471;BME280;36499;46.484;13.832;2023-07-24T11:57:34;92774.16;;;25.43;48.10
12471;BME280;36499;46.484;13.832;2023-07-24T12:00:03;92793.09;;;25.72;48.04
12471;BME280;36499;46.484;13.832;2023-07-24T12:02:32;92785.75;;;25.21;48.99
12471;BME280;36499;46.484;13.832;2023-07-24T12:05:01;92755.44;;;25.17;47.49
12471;BME280;36499;46.484;13.832;2023-07-24T12:07:31;92728.09;;;25.11;45.66
12471;BME280;36499;46.484;13.832;2023-07-24T12:10:00;92732.19;;;25.09;45.86
12471;BME280;36499;46.484;13.832;2023-07-24T12:12:42;92767.53;;;25.14;47.29
12471;BME280;36499;46.484;13.832;2023-07-24T12:15:14;92763.03;;;25.49;50.01
12471;BME280;36499;46.484;13.832;2023-07-24T12:17:42;92735.75;;;25.52;48.01
12471;BME280;36499;46.484;13.832;2023-07-24T12:20:10;92705.53;;;25.26;42.40
12471;BME280;36499;46.484;13.832;2023-07-24T12:22:39;92686.44;;;25.58;42.46
12471;BME280;36499;46.484;13.832;2023-07-24T12:25:06;92684.38;;;25.72;45.24
12471;BME280;36499;46.484;13.832;2023-07-24T12:27:34;92703.22;;;25.85;46.25
12471;BME280;36499;46.484;13.832;2023-07-24T12:30:01;92707.13;;;26.04;49.99
12471;BME280;36499;46.484;13.832;2023-07-24T12:32:29;92720.78;;;26.11;50.62
12471;BME280;36499;46.484;13.832;2023-07-24T12:34:56;92717.19;;;26.16;50.38
12471;BME280;36499;46.484;13.832;2023-07-24T12:37:24;92705.28;;;26.60;50.56
12471;BME280;36499;46.484;13.832;2023-07-24T12:39:51;92694.81;;;26.93;51.90
12471;BME280;36499;46.484;13.832;2023-07-24T12:42:18;92663.06;;;27.12;51.47
12471;BME280;36499;46.484;13.832;2023-07-24T12:44:45;92660.25;;;27.29;51.35
12471;BME280;36499;46.484;13.832;2023-07-24T12:47:12;92684.34;;;27.29;49.75
12471;BME280;36499;46.484;13.832;2023-07-24T12:49:40;92707.91;;;27.15;49.63
12471;BME280;36499;46.484;13.832;2023-07-24T12:52:07;92701.16;;;27.09;50.75
12471;BME280;36499;46.484;13.832;2023-07-24T12:54:35;92689.47;;;27.13;51.86